Woodinville, WA (98072)

5:22 PM PST on December 10, 2016 (GMT -0800)
Cottage Lake | | Change Station

Elev 338 ft 47.75 °N, 122.10 °W | Updated 5 minutes ago

Overcast
Overcast
36.7 °F
Feels Like 37 °F
N
0.0
Wind Variable Wind from WNW
Gusts 1.0 mph

Today
High -- | Low -- °F
--% Chance of Precip.
Yesterday
High -- | Low -- °F
Precip. -- in
Pressure 29.80 in
Visibility 10.0 miles
Clouds Overcast 1300 ft
Windchill 37 °F
Dew Point 36 °F
Humidity 98%
Rainfall 0.26 in
Snow Depth Not available.
7:46 AM 4:16 PM
Waxing Gibbous, 87% visible
SPECI KPAE 110100Z 15012G20KT 10SM OVC013 05/03 A2980 RMK AO2 T00500033
Pressure 29.80 in
Visibility 10.0 miles
Clouds Overcast 1300 ft
Windchill 37 °F
Dew Point 36 °F
Humidity 98%
Rainfall 0.26 in
Snow Depth Not available.
7:46 AM 4:16 PM
Waxing Gibbous, 87% visible
SPECI KPAE 110100Z 15012G20KT 10SM OVC013 05/03 A2980 RMK AO2 T00500033

10-Day Weather Forecast

Almanac

Astronomy

Dec. 10, 2016 Rise Set
Actual Time
Civil Twilight
Nautical Twilight
Astronomical Twilight
Moon
Length of Visible Light
Length of Day
Tomorrow will be .
, % of the Moon is Illuminated

Today's Extremes

State Highs State Lows

Community

WunderPhotos

Upload Photos

1,956,686 photos uploaded!

WunderBlog® & News

Nearby

Air Quality

  Air Quality AQ Index Pollutant
Not available.

Snow Depth

Station Depth Elevation

Earthquake Activity

City Distance Mag. Time & Date
Minimum magnitude displayed is 2.5.

Coastal Water Temperatures

Place Temperature

Stations

Nearby Weather Stations

Station Location Temp. Windchill Dew Point Humidity Wind Precip. Elev Updated Type
                   

Watches & Warnings

There are currently no watches in effect.